GLO1740 SBBR-SBBV
Flight info
| Callsign | GLO1740 |
|---|---|
| Flight time | 3h 9m |
| Altitude | 38000 |
| Route | ILKUS DCT OPNAX UZ24 ILVIS DCT BVI |
| Aircraft | B738/M-SDFGIKLORWXY/LB1 |
Departure
| Time | 2026-04-22 12:03 |
|---|---|
| Airport | Presidente Juscelino Kubitschek International Airport (SBBR) |
Arrival
| Time | 2026-04-22 15:12 |
|---|---|
| Airport | Atlas Brasil Cantanhede International Airport (SBBV) |
| Time | Latitude | Longitude | Altitude | Speed | Heading |
|---|---|---|---|---|---|
| 2026-04-22 11:40 | -15.86710 | -47.91843 | 3471 ft | 0 kts | 176° |
| 2026-04-22 11:56 | -15.86704 | -47.91844 | 3471 ft | 4 kts | 175° |
| 2026-04-22 11:56 | -15.86677 | -47.91847 | 3470 ft | 4 kts | 173° |
| 2026-04-22 11:57 | -15.86650 | -47.91849 | 3419 ft | 4 kts | 187° |
| 2026-04-22 11:57 | -15.86629 | -47.91841 | 3469 ft | 4 kts | 217° |
| 2026-04-22 11:57 | -15.86614 | -47.91820 | 3468 ft | 4 kts | 256° |
| 2026-04-22 11:57 | -15.86611 | -47.91794 | 3467 ft | 2 kts | 266° |
| 2026-04-22 11:58 | -15.86610 | -47.91791 | 3467 ft | 1 kts | 266° |
| 2026-04-22 11:59 | -15.86610 | -47.91792 | 3467 ft | 1 kts | 266° |
| 2026-04-22 11:59 | -15.86611 | -47.91806 | 3469 ft | 3 kts | 266° |
| 2026-04-22 12:00 | -15.86614 | -47.91843 | 3469 ft | 7 kts | 265° |
| 2026-04-22 12:00 | -15.86617 | -47.91902 | 3470 ft | 9 kts | 266° |
| 2026-04-22 12:00 | -15.86622 | -47.91978 | 3471 ft | 12 kts | 266° |
| 2026-04-22 12:00 | -15.86628 | -47.92070 | 3471 ft | 14 kts | 266° |
| 2026-04-22 12:01 | -15.86630 | -47.92175 | 3471 ft | 16 kts | 286° |
| 2026-04-22 12:01 | -15.86577 | -47.92285 | 3468 ft | 18 kts | 304° |
| 2026-04-22 12:01 | -15.86527 | -47.92410 | 3469 ft | 20 kts | 268° |
| 2026-04-22 12:01 | -15.86538 | -47.92565 | 3463 ft | 23 kts | 266° |
| 2026-04-22 12:02 | -15.86548 | -47.92717 | 3462 ft | 18 kts | 270° |
| 2026-04-22 12:02 | -15.86461 | -47.92768 | 3460 ft | 16 kts | 360° |
| 2026-04-22 12:02 | -15.86371 | -47.92714 | 3459 ft | 15 kts | 49° |
| 2026-04-22 12:02 | -15.86349 | -47.92611 | 3460 ft | 15 kts | 87° |
| 2026-04-22 12:03 | -15.86328 | -47.92298 | 3465 ft | 76 kts | 86° |
| 2026-04-22 12:03 | -15.86278 | -47.91533 | 3463 ft | 134 kts | 86° |
| 2026-04-22 12:03 | -15.86209 | -47.90398 | 3543 ft | 176 kts | 86° |
| 2026-04-22 12:03 | -15.86125 | -47.89085 | 4250 ft | 183 kts | 86° |
| 2026-04-22 12:04 | -15.86039 | -47.87813 | 5245 ft | 173 kts | 85° |
| 2026-04-22 12:04 | -15.85958 | -47.86526 | 5744 ft | 190 kts | 86° |
| 2026-04-22 12:04 | -15.85863 | -47.85048 | 5962 ft | 219 kts | 85° |
| 2026-04-22 12:04 | -15.85756 | -47.83387 | 6244 ft | 241 kts | 86° |
| 2026-04-22 12:05 | -15.85637 | -47.81544 | 6431 ft | 267 kts | 86° |
| 2026-04-22 12:05 | -15.85324 | -47.79631 | 7167 ft | 272 kts | 68° |
| 2026-04-22 12:05 | -15.84311 | -47.77996 | 7923 ft | 278 kts | 46° |
| 2026-04-22 12:05 | -15.82702 | -47.76847 | 8622 ft | 286 kts | 24° |
| 2026-04-22 12:06 | -15.80737 | -47.76430 | 9281 ft | 297 kts | 358° |
| 2026-04-22 12:06 | -15.78731 | -47.76976 | 10030 ft | 302 kts | 332° |
| 2026-04-22 12:06 | -15.76929 | -47.78126 | 10623 ft | 311 kts | 327° |
| 2026-04-22 12:06 | -15.75062 | -47.79440 | 10771 ft | 336 kts | 325° |
| 2026-04-22 12:07 | -15.73081 | -47.80870 | 10959 ft | 356 kts | 325° |
| 2026-04-22 12:07 | -15.71022 | -47.82362 | 11393 ft | 366 kts | 325° |
| 2026-04-22 12:07 | -15.68925 | -47.83874 | 12096 ft | 366 kts | 325° |
| 2026-04-22 12:07 | -15.66818 | -47.85384 | 12699 ft | 372 kts | 325° |
| 2026-04-22 12:08 | -15.64663 | -47.86920 | 13258 ft | 377 kts | 325° |
| 2026-04-22 12:08 | -15.62503 | -47.88454 | 13965 ft | 378 kts | 325° |
| 2026-04-22 12:08 | -15.60324 | -47.89996 | 14459 ft | 382 kts | 326° |
| 2026-04-22 12:08 | -15.58118 | -47.91556 | 14952 ft | 386 kts | 326° |
| 2026-04-22 12:09 | -15.55890 | -47.93130 | 15470 ft | 389 kts | 326° |
| 2026-04-22 12:09 | -15.53645 | -47.94715 | 15989 ft | 391 kts | 326° |
| 2026-04-22 12:09 | -15.51392 | -47.96305 | 16533 ft | 393 kts | 326° |
| 2026-04-22 12:09 | -15.49120 | -47.97907 | 17009 ft | 397 kts | 326° |
| 2026-04-22 12:10 | -15.46815 | -47.99532 | 17512 ft | 400 kts | 326° |
| 2026-04-22 12:10 | -15.44502 | -48.01162 | 18036 ft | 402 kts | 326° |
| 2026-04-22 12:10 | -15.42172 | -48.02804 | 18479 ft | 406 kts | 326° |
| 2026-04-22 12:10 | -15.39826 | -48.04456 | 18864 ft | 409 kts | 326° |
| 2026-04-22 12:11 | -15.37465 | -48.06119 | 19284 ft | 411 kts | 326° |
| 2026-04-22 12:11 | -15.35089 | -48.07791 | 19715 ft | 413 kts | 326° |
| 2026-04-22 12:11 | -15.32706 | -48.09469 | 20110 ft | 416 kts | 326° |
| 2026-04-22 12:11 | -15.30306 | -48.11158 | 20501 ft | 418 kts | 326° |
| 2026-04-22 12:12 | -15.27919 | -48.12837 | 20883 ft | 421 kts | 326° |
| 2026-04-22 12:12 | -15.25484 | -48.14549 | 21260 ft | 423 kts | 326° |
| 2026-04-22 12:12 | -15.23043 | -48.16265 | 21653 ft | 425 kts | 326° |
| 2026-04-22 12:12 | -15.20589 | -48.17990 | 22040 ft | 428 kts | 326° |
| 2026-04-22 12:13 | -15.18122 | -48.19724 | 22399 ft | 430 kts | 326° |
| 2026-04-22 12:13 | -15.15633 | -48.21472 | 22754 ft | 433 kts | 326° |
| 2026-04-22 12:13 | -15.13134 | -48.23227 | 23100 ft | 436 kts | 326° |
| 2026-04-22 12:13 | -15.10621 | -48.24992 | 23465 ft | 438 kts | 326° |
| 2026-04-22 12:14 | -15.08096 | -48.26764 | 23775 ft | 440 kts | 326° |
| 2026-04-22 12:14 | -15.05559 | -48.28544 | 24074 ft | 442 kts | 326° |
| 2026-04-22 12:14 | -15.03008 | -48.30334 | 24375 ft | 443 kts | 326° |
| 2026-04-22 12:14 | -15.00451 | -48.32127 | 24663 ft | 445 kts | 326° |
| 2026-04-22 12:15 | -14.97877 | -48.33931 | 24931 ft | 447 kts | 326° |
| 2026-04-22 12:15 | -14.95290 | -48.35745 | 25190 ft | 450 kts | 326° |
| 2026-04-22 12:15 | -14.92694 | -48.37563 | 25451 ft | 452 kts | 326° |
| 2026-04-22 12:15 | -14.90084 | -48.39392 | 25765 ft | 453 kts | 326° |
| 2026-04-22 12:16 | -14.87473 | -48.41220 | 26031 ft | 454 kts | 326° |
| 2026-04-22 12:16 | -14.84848 | -48.43058 | 26296 ft | 456 kts | 326° |
| 2026-04-22 12:16 | -14.82209 | -48.44904 | 26537 ft | 458 kts | 326° |
| 2026-04-22 12:16 | -14.79597 | -48.46731 | 26801 ft | 459 kts | 326° |
| 2026-04-22 12:17 | -14.76914 | -48.48608 | 27092 ft | 460 kts | 326° |
| 2026-04-22 12:17 | -14.74297 | -48.50438 | 27350 ft | 461 kts | 326° |
| 2026-04-22 12:17 | -14.71628 | -48.52303 | 27588 ft | 463 kts | 326° |
| 2026-04-22 12:17 | -14.68956 | -48.54170 | 27823 ft | 465 kts | 326° |
| 2026-04-22 12:18 | -14.66275 | -48.56043 | 28060 ft | 466 kts | 326° |
| 2026-04-22 12:18 | -14.63586 | -48.57921 | 28290 ft | 467 kts | 326° |
| 2026-04-22 12:18 | -14.60882 | -48.59808 | 28522 ft | 469 kts | 326° |
| 2026-04-22 12:18 | -14.58168 | -48.61703 | 28728 ft | 471 kts | 326° |
| 2026-04-22 12:19 | -14.55450 | -48.63599 | 28940 ft | 473 kts | 327° |
| 2026-04-22 12:19 | -14.52717 | -48.65505 | 29159 ft | 474 kts | 327° |
| 2026-04-22 12:19 | -14.49984 | -48.67411 | 29380 ft | 475 kts | 327° |
| 2026-04-22 12:19 | -14.47238 | -48.69325 | 29580 ft | 476 kts | 327° |
| 2026-04-22 12:20 | -14.45419 | -48.70593 | 29713 ft | 477 kts | 327° |
| 2026-04-22 12:20 | -14.42660 | -48.72515 | 29910 ft | 478 kts | 327° |
| 2026-04-22 12:20 | -14.38998 | -48.75065 | 30246 ft | 477 kts | 327° |
| 2026-04-22 12:20 | -14.36249 | -48.76980 | 30490 ft | 477 kts | 327° |
| 2026-04-22 12:21 | -14.33496 | -48.78896 | 30655 ft | 478 kts | 327° |
| 2026-04-22 12:21 | -14.31631 | -48.80193 | 30765 ft | 479 kts | 327° |
| 2026-04-22 12:21 | -14.28860 | -48.82121 | 30953 ft | 480 kts | 327° |
| 2026-04-22 12:21 | -14.26094 | -48.84045 | 31179 ft | 480 kts | 327° |
| 2026-04-22 12:22 | -14.23357 | -48.85948 | 31385 ft | 480 kts | 327° |
| 2026-04-22 12:22 | -14.20584 | -48.87875 | 31567 ft | 481 kts | 327° |
| 2026-04-22 12:22 | -14.17807 | -48.89805 | 31766 ft | 482 kts | 327° |
| 2026-04-22 12:22 | -14.15021 | -48.91740 | 31993 ft | 482 kts | 327° |
| 2026-04-22 12:23 | -14.12233 | -48.93676 | 32207 ft | 483 kts | 327° |
| 2026-04-22 12:23 | -14.09453 | -48.95606 | 32412 ft | 483 kts | 327° |
| 2026-04-22 12:23 | -14.06651 | -48.97551 | 32621 ft | 484 kts | 327° |
| 2026-04-22 12:23 | -14.03859 | -48.99488 | 32849 ft | 484 kts | 327° |
| 2026-04-22 12:24 | -14.01065 | -49.01426 | 33059 ft | 485 kts | 327° |
| 2026-04-22 12:24 | -13.98262 | -49.03370 | 33270 ft | 485 kts | 327° |
| 2026-04-22 12:24 | -13.95462 | -49.05311 | 33487 ft | 486 kts | 327° |
| 2026-04-22 12:24 | -13.92653 | -49.07258 | 33708 ft | 486 kts | 328° |
| 2026-04-22 12:25 | -13.89848 | -49.09202 | 33914 ft | 487 kts | 328° |
| 2026-04-22 12:25 | -13.87040 | -49.11147 | 34104 ft | 487 kts | 328° |
| 2026-04-22 12:25 | -13.84262 | -49.13071 | 34309 ft | 487 kts | 328° |
| 2026-04-22 12:25 | -13.81449 | -49.15017 | 34523 ft | 486 kts | 328° |
| 2026-04-22 12:26 | -13.78594 | -49.16866 | 34731 ft | 485 kts | 331° |
| 2026-04-22 12:26 | -13.75677 | -49.18617 | 34918 ft | 484 kts | 332° |
| 2026-04-22 12:26 | -13.72744 | -49.20319 | 35112 ft | 484 kts | 333° |
| 2026-04-22 12:26 | -13.69802 | -49.22012 | 35332 ft | 483 kts | 333° |
| 2026-04-22 12:27 | -13.66874 | -49.23702 | 35555 ft | 482 kts | 332° |
| 2026-04-22 12:27 | -13.63955 | -49.25399 | 35736 ft | 482 kts | 332° |
| 2026-04-22 12:27 | -13.61033 | -49.27108 | 35910 ft | 482 kts | 332° |
| 2026-04-22 12:27 | -13.58123 | -49.28818 | 36026 ft | 482 kts | 332° |
| 2026-04-22 12:28 | -13.52283 | -49.32258 | 36029 ft | 483 kts | 332° |
| 2026-04-22 12:28 | -13.46457 | -49.35690 | 36028 ft | 481 kts | 332° |
| 2026-04-22 12:29 | -13.40693 | -49.39082 | 36027 ft | 480 kts | 332° |
| 2026-04-22 12:29 | -13.34907 | -49.42483 | 36026 ft | 478 kts | 332° |
| 2026-04-22 12:30 | -13.26255 | -49.47564 | 36027 ft | 477 kts | 332° |
| 2026-04-22 12:31 | -13.20521 | -49.50930 | 36024 ft | 476 kts | 332° |
| 2026-04-22 12:31 | -13.14768 | -49.54305 | 36026 ft | 476 kts | 332° |
| 2026-04-22 12:32 | -13.09013 | -49.57681 | 36025 ft | 477 kts | 332° |
| 2026-04-22 12:32 | -13.00358 | -49.62753 | 36025 ft | 478 kts | 332° |
| 2026-04-22 12:33 | -12.94563 | -49.66148 | 36027 ft | 479 kts | 332° |
| 2026-04-22 12:33 | -12.88785 | -49.69561 | 36021 ft | 479 kts | 332° |
| 2026-04-22 12:34 | -12.83009 | -49.72987 | 36029 ft | 479 kts | 332° |
| 2026-04-22 12:34 | -12.77267 | -49.76389 | 36025 ft | 480 kts | 332° |
| 2026-04-22 12:35 | -12.71486 | -49.79810 | 36026 ft | 479 kts | 332° |
| 2026-04-22 12:35 | -12.65711 | -49.83224 | 36020 ft | 479 kts | 332° |
| 2026-04-22 12:36 | -12.59935 | -49.86637 | 36027 ft | 479 kts | 332° |
| 2026-04-22 12:36 | -12.54169 | -49.90042 | 36024 ft | 478 kts | 331° |
| 2026-04-22 12:37 | -12.48403 | -49.93445 | 36017 ft | 478 kts | 331° |
| 2026-04-22 12:37 | -12.42650 | -49.96839 | 36018 ft | 477 kts | 331° |
| 2026-04-22 12:38 | -12.36901 | -50.00229 | 36019 ft | 476 kts | 331° |
| 2026-04-22 12:38 | -12.31158 | -50.03614 | 36023 ft | 476 kts | 332° |
| 2026-04-22 12:39 | -12.22554 | -50.08681 | 36017 ft | 475 kts | 331° |
| 2026-04-22 12:40 | -12.16855 | -50.12036 | 36019 ft | 475 kts | 332° |
| 2026-04-22 12:40 | -12.11134 | -50.15402 | 36016 ft | 474 kts | 332° |
| 2026-04-22 12:41 | -12.05411 | -50.18766 | 36022 ft | 474 kts | 332° |
| 2026-04-22 12:41 | -11.99686 | -50.22131 | 36021 ft | 474 kts | 332° |
| 2026-04-22 12:42 | -11.93969 | -50.25490 | 36016 ft | 474 kts | 332° |
| 2026-04-22 12:42 | -11.88292 | -50.28823 | 36020 ft | 473 kts | 332° |
| 2026-04-22 12:43 | -11.82572 | -50.32180 | 36017 ft | 473 kts | 332° |
| 2026-04-22 12:43 | -11.76853 | -50.35534 | 36015 ft | 473 kts | 332° |
| 2026-04-22 12:44 | -11.71149 | -50.38879 | 36017 ft | 473 kts | 332° |
| 2026-04-22 12:44 | -11.65440 | -50.42224 | 36017 ft | 473 kts | 332° |
| 2026-04-22 12:45 | -11.59763 | -50.45550 | 36011 ft | 473 kts | 332° |
| 2026-04-22 12:45 | -11.54061 | -50.48889 | 36013 ft | 473 kts | 332° |
| 2026-04-22 12:46 | -11.48349 | -50.52232 | 36016 ft | 472 kts | 333° |
| 2026-04-22 12:46 | -11.42650 | -50.55566 | 36014 ft | 472 kts | 333° |
| 2026-04-22 12:47 | -11.36948 | -50.58900 | 36009 ft | 472 kts | 333° |
| 2026-04-22 12:47 | -11.31445 | -50.62119 | 36014 ft | 472 kts | 333° |
| 2026-04-22 12:48 | -11.25776 | -50.65436 | 36012 ft | 472 kts | 333° |
| 2026-04-22 12:48 | -11.20081 | -50.68767 | 36012 ft | 472 kts | 333° |
| 2026-04-22 12:49 | -11.14380 | -50.72099 | 36007 ft | 471 kts | 333° |
| 2026-04-22 12:49 | -11.08697 | -50.75419 | 36010 ft | 471 kts | 333° |
| 2026-04-22 12:50 | -11.03018 | -50.78736 | 36010 ft | 471 kts | 333° |
| 2026-04-22 12:50 | -10.97336 | -50.82052 | 36004 ft | 470 kts | 333° |
| 2026-04-22 12:51 | -10.91658 | -50.85365 | 36008 ft | 469 kts | 333° |
| 2026-04-22 12:51 | -10.85989 | -50.88671 | 36007 ft | 469 kts | 333° |
| 2026-04-22 12:52 | -10.80364 | -50.91951 | 36003 ft | 468 kts | 333° |
| 2026-04-22 12:52 | -10.74708 | -50.95246 | 36006 ft | 468 kts | 334° |
| 2026-04-22 12:53 | -10.69066 | -50.98533 | 36004 ft | 467 kts | 333° |
| 2026-04-22 12:53 | -10.63419 | -51.01821 | 36003 ft | 467 kts | 333° |
| 2026-04-22 12:54 | -10.57784 | -51.05101 | 36005 ft | 466 kts | 333° |
| 2026-04-22 12:54 | -10.52159 | -51.08373 | 36004 ft | 466 kts | 333° |
| 2026-04-22 12:55 | -10.46641 | -51.11843 | 36004 ft | 467 kts | 330° |
| 2026-04-22 12:55 | -10.41241 | -51.15460 | 36015 ft | 467 kts | 329° |
| 2026-04-22 12:56 | -10.35810 | -51.19096 | 36005 ft | 467 kts | 330° |
| 2026-04-22 12:56 | -10.30370 | -51.22701 | 36005 ft | 467 kts | 330° |
| 2026-04-22 12:57 | -10.24915 | -51.26297 | 36008 ft | 467 kts | 330° |
| 2026-04-22 12:57 | -10.19450 | -51.29895 | 36010 ft | 467 kts | 330° |
| 2026-04-22 12:58 | -10.14026 | -51.33465 | 36012 ft | 468 kts | 330° |
| 2026-04-22 12:58 | -10.08568 | -51.37057 | 36009 ft | 468 kts | 330° |
| 2026-04-22 12:59 | -10.03090 | -51.40661 | 36009 ft | 468 kts | 330° |
| 2026-04-22 12:59 | -9.97622 | -51.44257 | 36008 ft | 468 kts | 330° |
| 2026-04-22 13:00 | -9.92156 | -51.47850 | 36006 ft | 468 kts | 330° |
| 2026-04-22 13:00 | -9.86698 | -51.51437 | 36003 ft | 467 kts | 330° |
| 2026-04-22 13:01 | -9.81281 | -51.54995 | 36007 ft | 466 kts | 330° |
| 2026-04-22 13:01 | -9.75842 | -51.58566 | 36003 ft | 466 kts | 329° |
| 2026-04-22 13:02 | -9.70396 | -51.62141 | 36011 ft | 465 kts | 329° |
| 2026-04-22 13:02 | -9.64968 | -51.65701 | 36014 ft | 464 kts | 329° |
| 2026-04-22 13:03 | -9.59537 | -51.69262 | 36008 ft | 464 kts | 329° |
| 2026-04-22 13:03 | -9.54104 | -51.72824 | 36013 ft | 464 kts | 329° |
| 2026-04-22 13:04 | -9.48720 | -51.76353 | 36013 ft | 464 kts | 328° |
| 2026-04-22 13:04 | -9.43306 | -51.79899 | 36008 ft | 463 kts | 328° |
| 2026-04-22 13:05 | -9.37890 | -51.83446 | 36011 ft | 463 kts | 328° |
| 2026-04-22 13:05 | -9.32484 | -51.86985 | 36008 ft | 462 kts | 328° |
| 2026-04-22 13:06 | -9.27090 | -51.90514 | 36009 ft | 461 kts | 328° |
| 2026-04-22 13:06 | -9.21691 | -51.94046 | 36010 ft | 462 kts | 328° |
| 2026-04-22 13:07 | -9.16287 | -51.97579 | 36004 ft | 462 kts | 328° |
| 2026-04-22 13:07 | -9.11801 | -52.00511 | 36006 ft | 462 kts | 328° |
| 2026-04-22 13:08 | -9.05521 | -52.04614 | 36007 ft | 462 kts | 328° |
| 2026-04-22 13:08 | -9.00130 | -52.08135 | 36008 ft | 461 kts | 328° |
| 2026-04-22 13:09 | -8.95639 | -52.11068 | 36005 ft | 461 kts | 328° |
| 2026-04-22 13:09 | -8.90251 | -52.14585 | 36006 ft | 461 kts | 328° |
| 2026-04-22 13:10 | -8.84855 | -52.18106 | 36004 ft | 461 kts | 328° |
| 2026-04-22 13:10 | -8.79468 | -52.21620 | 36008 ft | 460 kts | 328° |
| 2026-04-22 13:11 | -8.74078 | -52.25134 | 36004 ft | 460 kts | 328° |
| 2026-04-22 13:11 | -8.68702 | -52.28638 | 36007 ft | 460 kts | 328° |
| 2026-04-22 13:12 | -8.63358 | -52.32122 | 36000 ft | 460 kts | 328° |
| 2026-04-22 13:12 | -8.57985 | -52.35622 | 36005 ft | 460 kts | 328° |
| 2026-04-22 13:13 | -8.52608 | -52.39126 | 36000 ft | 460 kts | 328° |
| 2026-04-22 13:13 | -8.47234 | -52.42633 | 36005 ft | 459 kts | 328° |
| 2026-04-22 13:14 | -8.41860 | -52.46140 | 36000 ft | 460 kts | 328° |
| 2026-04-22 13:14 | -8.36490 | -52.49643 | 36006 ft | 460 kts | 328° |
| 2026-04-22 13:15 | -8.31112 | -52.53150 | 36003 ft | 460 kts | 328° |
| 2026-04-22 13:15 | -8.25763 | -52.56637 | 36002 ft | 460 kts | 328° |
| 2026-04-22 13:16 | -8.20390 | -52.60139 | 36007 ft | 460 kts | 327° |
| 2026-04-22 13:16 | -8.15016 | -52.63639 | 36003 ft | 460 kts | 327° |
| 2026-04-22 13:17 | -8.09630 | -52.67147 | 36004 ft | 460 kts | 327° |
| 2026-04-22 13:17 | -8.04249 | -52.70650 | 36006 ft | 460 kts | 327° |
| 2026-04-22 13:18 | -7.98867 | -52.74152 | 36004 ft | 460 kts | 327° |
| 2026-04-22 13:18 | -7.93491 | -52.77650 | 36006 ft | 460 kts | 327° |
| 2026-04-22 13:19 | -7.88106 | -52.81153 | 36006 ft | 460 kts | 327° |
| 2026-04-22 13:19 | -7.82749 | -52.84636 | 36006 ft | 460 kts | 327° |
| 2026-04-22 13:20 | -7.77365 | -52.88136 | 36004 ft | 461 kts | 327° |
| 2026-04-22 13:20 | -7.71970 | -52.91641 | 36006 ft | 461 kts | 327° |
| 2026-04-22 13:21 | -7.66574 | -52.95146 | 36008 ft | 461 kts | 327° |
| 2026-04-22 13:21 | -7.61180 | -52.98649 | 36008 ft | 461 kts | 327° |
| 2026-04-22 13:22 | -7.55779 | -53.02155 | 36008 ft | 462 kts | 327° |
| 2026-04-22 13:22 | -7.50374 | -53.05663 | 36009 ft | 462 kts | 327° |
| 2026-04-22 13:23 | -7.44959 | -53.09176 | 36008 ft | 462 kts | 327° |
| 2026-04-22 13:23 | -7.39579 | -53.12666 | 36010 ft | 463 kts | 327° |
| 2026-04-22 13:24 | -7.34154 | -53.16183 | 36007 ft | 464 kts | 327° |
| 2026-04-22 13:24 | -7.28720 | -53.19706 | 36008 ft | 464 kts | 327° |
| 2026-04-22 13:25 | -7.23285 | -53.23228 | 36008 ft | 465 kts | 327° |
| 2026-04-22 13:25 | -7.17837 | -53.26758 | 36009 ft | 466 kts | 327° |
| 2026-04-22 13:26 | -7.12382 | -53.30290 | 36007 ft | 466 kts | 327° |
| 2026-04-22 13:26 | -7.06955 | -53.33805 | 36008 ft | 466 kts | 327° |
| 2026-04-22 13:27 | -7.01500 | -53.37335 | 36008 ft | 466 kts | 328° |
| 2026-04-22 13:27 | -6.96040 | -53.40869 | 36005 ft | 466 kts | 328° |
| 2026-04-22 13:28 | -6.90584 | -53.44398 | 36006 ft | 465 kts | 328° |
| 2026-04-22 13:28 | -6.85140 | -53.47919 | 36001 ft | 465 kts | 328° |
| 2026-04-22 13:29 | -6.79727 | -53.51419 | 36005 ft | 464 kts | 328° |
| 2026-04-22 13:29 | -6.74296 | -53.54930 | 36007 ft | 464 kts | 328° |
| 2026-04-22 13:30 | -6.68864 | -53.58440 | 36005 ft | 464 kts | 328° |
| 2026-04-22 13:30 | -6.63433 | -53.61949 | 36002 ft | 463 kts | 328° |
| 2026-04-22 13:31 | -6.58011 | -53.65451 | 36006 ft | 463 kts | 328° |
| 2026-04-22 13:31 | -6.52578 | -53.68958 | 36004 ft | 463 kts | 328° |
| 2026-04-22 13:32 | -6.47305 | -53.72363 | 36002 ft | 463 kts | 328° |
| 2026-04-22 13:32 | -6.41900 | -53.75851 | 36008 ft | 464 kts | 328° |
| 2026-04-22 13:33 | -6.36457 | -53.79363 | 36005 ft | 464 kts | 328° |
| 2026-04-22 13:33 | -6.31019 | -53.82871 | 36006 ft | 465 kts | 328° |
| 2026-04-22 13:34 | -6.25568 | -53.86386 | 36004 ft | 465 kts | 328° |
| 2026-04-22 13:34 | -6.20146 | -53.89882 | 36002 ft | 466 kts | 328° |
| 2026-04-22 13:35 | -6.14684 | -53.93403 | 36003 ft | 466 kts | 328° |
| 2026-04-22 13:35 | -6.09217 | -53.96925 | 36003 ft | 466 kts | 328° |
| 2026-04-22 13:36 | -6.03750 | -54.00448 | 36003 ft | 466 kts | 328° |
| 2026-04-22 13:36 | -5.98284 | -54.03969 | 36002 ft | 466 kts | 328° |
| 2026-04-22 13:37 | -5.92849 | -54.07469 | 36000 ft | 466 kts | 328° |
| 2026-04-22 13:37 | -5.87357 | -54.11004 | 36001 ft | 466 kts | 328° |
| 2026-04-22 13:38 | -5.81935 | -54.14495 | 36001 ft | 465 kts | 328° |
| 2026-04-22 13:38 | -5.73767 | -54.19752 | 36004 ft | 465 kts | 328° |
| 2026-04-22 13:39 | -5.68320 | -54.23257 | 36000 ft | 465 kts | 328° |
| 2026-04-22 13:39 | -5.62898 | -54.26782 | 36001 ft | 464 kts | 327° |
| 2026-04-22 13:40 | -5.57506 | -54.30363 | 36005 ft | 464 kts | 327° |
| 2026-04-22 13:40 | -5.52147 | -54.33924 | 36006 ft | 464 kts | 327° |
| 2026-04-22 13:41 | -5.46754 | -54.37498 | 36006 ft | 464 kts | 327° |
| 2026-04-22 13:41 | -5.41351 | -54.41073 | 36008 ft | 464 kts | 327° |
| 2026-04-22 13:42 | -5.35946 | -54.44647 | 36009 ft | 464 kts | 327° |
| 2026-04-22 13:42 | -5.30586 | -54.48191 | 36010 ft | 465 kts | 327° |
| 2026-04-22 13:43 | -5.25187 | -54.51761 | 36006 ft | 465 kts | 327° |
| 2026-04-22 13:43 | -5.19777 | -54.55337 | 36008 ft | 465 kts | 327° |
| 2026-04-22 13:44 | -5.14369 | -54.58912 | 36008 ft | 466 kts | 327° |
| 2026-04-22 13:44 | -5.08950 | -54.62494 | 36010 ft | 466 kts | 327° |
| 2026-04-22 13:45 | -5.03525 | -54.66078 | 36008 ft | 467 kts | 327° |
| 2026-04-22 13:45 | -4.98102 | -54.69661 | 36007 ft | 467 kts | 327° |
| 2026-04-22 13:46 | -4.92664 | -54.73255 | 36008 ft | 467 kts | 327° |
| 2026-04-22 13:46 | -4.87272 | -54.76819 | 36009 ft | 467 kts | 327° |
| 2026-04-22 13:47 | -4.81844 | -54.80406 | 36007 ft | 467 kts | 327° |
| 2026-04-22 13:47 | -4.76413 | -54.83995 | 36009 ft | 467 kts | 327° |
| 2026-04-22 13:48 | -4.70983 | -54.87582 | 36005 ft | 467 kts | 327° |
| 2026-04-22 13:48 | -4.65563 | -54.91162 | 36009 ft | 466 kts | 327° |
| 2026-04-22 13:49 | -4.60148 | -54.94738 | 36007 ft | 466 kts | 327° |
| 2026-04-22 13:49 | -4.54729 | -54.98316 | 36007 ft | 466 kts | 327° |
| 2026-04-22 13:50 | -4.49314 | -55.01890 | 36004 ft | 466 kts | 327° |
| 2026-04-22 13:50 | -4.43938 | -55.05439 | 36005 ft | 465 kts | 327° |
| 2026-04-22 13:51 | -4.38533 | -55.09006 | 36006 ft | 465 kts | 327° |
| 2026-04-22 13:51 | -4.33121 | -55.12577 | 36004 ft | 465 kts | 327° |
| 2026-04-22 13:52 | -4.27708 | -55.16147 | 36004 ft | 465 kts | 327° |
| 2026-04-22 13:52 | -4.22289 | -55.19722 | 36003 ft | 466 kts | 327° |
| 2026-04-22 13:53 | -4.16871 | -55.23294 | 36000 ft | 466 kts | 327° |
| 2026-04-22 13:53 | -4.11491 | -55.26843 | 36010 ft | 466 kts | 327° |
| 2026-04-22 13:54 | -4.06064 | -55.30422 | 35994 ft | 467 kts | 327° |
| 2026-04-22 13:54 | -4.00633 | -55.34002 | 35999 ft | 466 kts | 327° |
| 2026-04-22 13:55 | -3.95218 | -55.37575 | 35998 ft | 466 kts | 327° |
| 2026-04-22 13:55 | -3.89801 | -55.41150 | 35996 ft | 466 kts | 327° |
| 2026-04-22 13:56 | -3.85301 | -55.44121 | 35993 ft | 466 kts | 327° |
| 2026-04-22 13:56 | -3.79895 | -55.47690 | 35994 ft | 465 kts | 327° |
| 2026-04-22 13:57 | -3.74486 | -55.51260 | 36007 ft | 465 kts | 327° |
| 2026-04-22 13:57 | -3.69220 | -55.54735 | 36002 ft | 465 kts | 327° |
| 2026-04-22 13:58 | -3.63820 | -55.58298 | 36004 ft | 465 kts | 327° |
| 2026-04-22 13:58 | -3.58458 | -55.61835 | 35999 ft | 465 kts | 327° |
| 2026-04-22 13:59 | -3.53060 | -55.65395 | 36005 ft | 464 kts | 327° |
| 2026-04-22 13:59 | -3.47655 | -55.68960 | 36005 ft | 464 kts | 327° |
| 2026-04-22 14:00 | -3.42252 | -55.72523 | 36005 ft | 465 kts | 327° |
| 2026-04-22 14:00 | -3.36848 | -55.76087 | 36006 ft | 465 kts | 327° |
| 2026-04-22 14:01 | -3.31464 | -55.79637 | 36006 ft | 465 kts | 327° |
| 2026-04-22 14:01 | -3.26052 | -55.83205 | 36005 ft | 465 kts | 327° |
| 2026-04-22 14:02 | -3.20685 | -55.86742 | 36002 ft | 465 kts | 327° |
| 2026-04-22 14:02 | -3.15282 | -55.90303 | 36001 ft | 465 kts | 327° |
| 2026-04-22 14:03 | -3.09866 | -55.93863 | 36003 ft | 465 kts | 328° |
| 2026-04-22 14:03 | -3.04456 | -55.97417 | 36005 ft | 465 kts | 328° |
| 2026-04-22 14:04 | -2.99040 | -56.00977 | 36005 ft | 466 kts | 328° |
| 2026-04-22 14:04 | -2.93620 | -56.04540 | 36003 ft | 466 kts | 328° |
| 2026-04-22 14:05 | -2.88206 | -56.08098 | 36005 ft | 466 kts | 328° |
| 2026-04-22 14:06 | -2.80078 | -56.13440 | 36006 ft | 466 kts | 328° |
| 2026-04-22 14:06 | -2.74666 | -56.16996 | 36005 ft | 465 kts | 328° |
| 2026-04-22 14:07 | -2.69250 | -56.20555 | 36004 ft | 465 kts | 328° |
| 2026-04-22 14:07 | -2.63885 | -56.24080 | 36007 ft | 465 kts | 328° |
| 2026-04-22 14:08 | -2.58519 | -56.27698 | 36001 ft | 465 kts | 324° |
| 2026-04-22 14:08 | -2.53406 | -56.31679 | 36011 ft | 465 kts | 322° |
| 2026-04-22 14:09 | -2.48364 | -56.35728 | 36008 ft | 465 kts | 322° |
| 2026-04-22 14:09 | -2.43297 | -56.39767 | 36008 ft | 465 kts | 322° |
| 2026-04-22 14:10 | -2.38213 | -56.43783 | 36000 ft | 465 kts | 323° |
| 2026-04-22 14:10 | -2.33164 | -56.47759 | 36005 ft | 465 kts | 323° |
| 2026-04-22 14:11 | -2.28082 | -56.51760 | 36001 ft | 464 kts | 323° |
| 2026-04-22 14:11 | -2.23002 | -56.55759 | 36004 ft | 464 kts | 323° |
| 2026-04-22 14:12 | -2.17924 | -56.59758 | 36005 ft | 464 kts | 323° |
| 2026-04-22 14:12 | -2.12846 | -56.63756 | 36003 ft | 464 kts | 323° |
| 2026-04-22 14:13 | -2.07768 | -56.67754 | 36003 ft | 464 kts | 323° |
| 2026-04-22 14:13 | -2.02718 | -56.71730 | 36001 ft | 464 kts | 323° |
| 2026-04-22 14:14 | -1.97646 | -56.75722 | 36006 ft | 464 kts | 323° |
| 2026-04-22 14:14 | -1.92567 | -56.79720 | 36003 ft | 464 kts | 323° |
| 2026-04-22 14:15 | -1.87492 | -56.83715 | 36003 ft | 465 kts | 323° |
| 2026-04-22 14:15 | -1.82409 | -56.87716 | 36005 ft | 465 kts | 323° |
| 2026-04-22 14:16 | -1.77357 | -56.91691 | 36004 ft | 465 kts | 323° |
| 2026-04-22 14:16 | -1.72274 | -56.95691 | 36005 ft | 465 kts | 323° |
| 2026-04-22 14:17 | -1.67182 | -56.99697 | 36007 ft | 466 kts | 323° |
| 2026-04-22 14:17 | -1.62085 | -57.03707 | 36005 ft | 466 kts | 323° |
| 2026-04-22 14:18 | -1.56990 | -57.07716 | 36005 ft | 466 kts | 323° |
| 2026-04-22 14:18 | -1.51880 | -57.11736 | 36006 ft | 467 kts | 323° |
| 2026-04-22 14:19 | -1.46771 | -57.15755 | 36007 ft | 467 kts | 323° |
| 2026-04-22 14:19 | -1.41662 | -57.19773 | 36011 ft | 468 kts | 323° |
| 2026-04-22 14:20 | -1.34013 | -57.25790 | 36008 ft | 468 kts | 323° |
| 2026-04-22 14:20 | -1.28893 | -57.29817 | 36008 ft | 469 kts | 323° |
| 2026-04-22 14:21 | -1.21204 | -57.35863 | 36008 ft | 469 kts | 323° |
| 2026-04-22 14:22 | -1.13516 | -57.41909 | 36004 ft | 468 kts | 323° |
| 2026-04-22 14:23 | -1.05859 | -57.47930 | 36003 ft | 468 kts | 323° |
| 2026-04-22 14:23 | -1.00736 | -57.51958 | 36005 ft | 468 kts | 323° |
| 2026-04-22 14:24 | -0.95610 | -57.55989 | 36001 ft | 468 kts | 323° |
| 2026-04-22 14:24 | -0.90494 | -57.60011 | 36009 ft | 467 kts | 323° |
| 2026-04-22 14:25 | -0.85389 | -57.64025 | 36001 ft | 467 kts | 323° |
| 2026-04-22 14:25 | -0.80281 | -57.68041 | 36005 ft | 467 kts | 323° |
| 2026-04-22 14:26 | -0.75213 | -57.72026 | 36005 ft | 466 kts | 323° |
| 2026-04-22 14:26 | -0.70115 | -57.76035 | 36004 ft | 466 kts | 323° |
| 2026-04-22 14:27 | -0.65155 | -57.80194 | 35997 ft | 467 kts | 315° |
| 2026-04-22 14:27 | -0.60698 | -57.84916 | 36001 ft | 467 kts | 314° |
| 2026-04-22 14:28 | -0.56288 | -57.89687 | 36007 ft | 467 kts | 314° |
| 2026-04-22 14:28 | -0.51855 | -57.94433 | 36003 ft | 467 kts | 314° |
| 2026-04-22 14:29 | -0.47394 | -57.99171 | 36010 ft | 467 kts | 314° |
| 2026-04-22 14:29 | -0.42938 | -58.03895 | 36010 ft | 467 kts | 314° |
| 2026-04-22 14:30 | -0.38476 | -58.08625 | 36006 ft | 467 kts | 314° |
| 2026-04-22 14:30 | -0.34015 | -58.13357 | 36008 ft | 467 kts | 314° |
| 2026-04-22 14:31 | -0.29590 | -58.18051 | 36016 ft | 467 kts | 314° |
| 2026-04-22 14:31 | -0.25132 | -58.22780 | 36010 ft | 468 kts | 314° |
| 2026-04-22 14:32 | -0.20664 | -58.27519 | 36007 ft | 468 kts | 314° |
| 2026-04-22 14:32 | -0.16204 | -58.32250 | 36015 ft | 468 kts | 314° |
| 2026-04-22 14:33 | -0.11738 | -58.36988 | 36013 ft | 467 kts | 314° |
| 2026-04-22 14:33 | -0.07293 | -58.41704 | 36012 ft | 466 kts | 314° |
| 2026-04-22 14:34 | -0.02843 | -58.46425 | 36015 ft | 466 kts | 314° |
| 2026-04-22 14:34 | 0.01605 | -58.51140 | 36014 ft | 466 kts | 314° |
| 2026-04-22 14:35 | 0.06048 | -58.55843 | 36018 ft | 465 kts | 314° |
| 2026-04-22 14:35 | 0.10488 | -58.60544 | 36017 ft | 465 kts | 314° |
| 2026-04-22 14:36 | 0.14901 | -58.65220 | 36016 ft | 465 kts | 314° |
| 2026-04-22 14:36 | 0.19344 | -58.69926 | 36019 ft | 465 kts | 314° |
| 2026-04-22 14:37 | 0.23788 | -58.74634 | 36013 ft | 465 kts | 314° |
| 2026-04-22 14:37 | 0.28233 | -58.79343 | 36024 ft | 466 kts | 314° |
| 2026-04-22 14:38 | 0.32682 | -58.84057 | 36013 ft | 466 kts | 314° |
| 2026-04-22 14:38 | 0.37130 | -58.88770 | 36015 ft | 466 kts | 314° |
| 2026-04-22 14:39 | 0.41573 | -58.93476 | 36017 ft | 466 kts | 314° |
| 2026-04-22 14:39 | 0.46019 | -58.98187 | 36014 ft | 465 kts | 314° |
| 2026-04-22 14:40 | 0.52653 | -59.05216 | 36013 ft | 465 kts | 314° |
| 2026-04-22 14:40 | 0.57089 | -59.09917 | 36015 ft | 465 kts | 314° |
| 2026-04-22 14:41 | 0.61523 | -59.14615 | 36010 ft | 465 kts | 314° |
| 2026-04-22 14:41 | 0.65958 | -59.19315 | 36015 ft | 464 kts | 314° |
| 2026-04-22 14:42 | 0.70391 | -59.24013 | 36011 ft | 464 kts | 314° |
| 2026-04-22 14:42 | 0.74073 | -59.27916 | 36012 ft | 464 kts | 314° |
| 2026-04-22 14:43 | 0.78501 | -59.32609 | 36011 ft | 464 kts | 314° |
| 2026-04-22 14:43 | 0.83051 | -59.37166 | 36009 ft | 463 kts | 318° |
| 2026-04-22 14:44 | 0.87804 | -59.41504 | 36010 ft | 463 kts | 319° |
| 2026-04-22 14:44 | 0.92578 | -59.45853 | 35705 ft | 467 kts | 318° |
| 2026-04-22 14:45 | 0.94956 | -59.48043 | 35357 ft | 462 kts | 318° |
| 2026-04-22 14:45 | 0.97278 | -59.50192 | 34948 ft | 458 kts | 318° |
| 2026-04-22 14:45 | 0.99606 | -59.52350 | 34553 ft | 455 kts | 318° |
| 2026-04-22 14:45 | 1.01924 | -59.54500 | 34130 ft | 453 kts | 318° |
| 2026-04-22 14:46 | 1.04232 | -59.56639 | 33664 ft | 451 kts | 318° |
| 2026-04-22 14:46 | 1.06521 | -59.58761 | 33227 ft | 447 kts | 318° |
| 2026-04-22 14:46 | 1.08795 | -59.60868 | 32801 ft | 444 kts | 318° |
| 2026-04-22 14:46 | 1.11059 | -59.62966 | 32385 ft | 442 kts | 318° |
| 2026-04-22 14:47 | 1.13304 | -59.65045 | 31978 ft | 439 kts | 317° |
| 2026-04-22 14:47 | 1.15544 | -59.67120 | 31458 ft | 439 kts | 317° |
| 2026-04-22 14:47 | 1.17786 | -59.69192 | 31009 ft | 438 kts | 317° |
| 2026-04-22 14:47 | 1.20020 | -59.71257 | 30568 ft | 437 kts | 317° |
| 2026-04-22 14:48 | 1.22254 | -59.73322 | 30170 ft | 435 kts | 317° |
| 2026-04-22 14:48 | 1.24469 | -59.75370 | 29697 ft | 433 kts | 317° |
| 2026-04-22 14:48 | 1.26669 | -59.77404 | 29261 ft | 429 kts | 317° |
| 2026-04-22 14:48 | 1.28852 | -59.79423 | 28829 ft | 426 kts | 317° |
| 2026-04-22 14:49 | 1.31017 | -59.81426 | 28408 ft | 423 kts | 317° |
| 2026-04-22 14:49 | 1.33141 | -59.83392 | 28003 ft | 419 kts | 317° |
| 2026-04-22 14:49 | 1.35297 | -59.85386 | 27592 ft | 416 kts | 317° |
| 2026-04-22 14:49 | 1.37391 | -59.87323 | 27196 ft | 413 kts | 317° |
| 2026-04-22 14:50 | 1.39494 | -59.89268 | 26794 ft | 411 kts | 317° |
| 2026-04-22 14:50 | 1.41610 | -59.91226 | 26389 ft | 408 kts | 317° |
| 2026-04-22 14:50 | 1.43658 | -59.93121 | 26001 ft | 406 kts | 317° |
| 2026-04-22 14:50 | 1.45726 | -59.95035 | 25600 ft | 404 kts | 317° |
| 2026-04-22 14:51 | 1.47781 | -59.96937 | 25193 ft | 402 kts | 317° |
| 2026-04-22 14:51 | 1.49832 | -59.98835 | 24790 ft | 400 kts | 317° |
| 2026-04-22 14:51 | 1.51874 | -60.00725 | 24401 ft | 399 kts | 317° |
| 2026-04-22 14:51 | 1.53905 | -60.02604 | 23999 ft | 397 kts | 317° |
| 2026-04-22 14:52 | 1.55929 | -60.04475 | 23611 ft | 396 kts | 318° |
| 2026-04-22 14:52 | 1.58082 | -60.06177 | 23211 ft | 392 kts | 326° |
| 2026-04-22 14:52 | 1.60318 | -60.07699 | 22834 ft | 388 kts | 326° |
| 2026-04-22 14:52 | 1.62549 | -60.09192 | 22443 ft | 384 kts | 327° |
| 2026-04-22 14:53 | 1.64768 | -60.10674 | 22059 ft | 381 kts | 327° |
| 2026-04-22 14:53 | 1.66934 | -60.12124 | 21689 ft | 379 kts | 327° |
| 2026-04-22 14:53 | 1.69142 | -60.13609 | 21297 ft | 377 kts | 326° |
| 2026-04-22 14:53 | 1.71283 | -60.15053 | 20927 ft | 374 kts | 326° |
| 2026-04-22 14:54 | 1.73432 | -60.16506 | 20549 ft | 372 kts | 326° |
| 2026-04-22 14:54 | 1.75566 | -60.17950 | 20188 ft | 369 kts | 326° |
| 2026-04-22 14:54 | 1.77691 | -60.19390 | 19817 ft | 367 kts | 326° |
| 2026-04-22 14:54 | 1.79798 | -60.20818 | 19453 ft | 365 kts | 326° |
| 2026-04-22 14:55 | 1.81900 | -60.22242 | 19075 ft | 363 kts | 326° |
| 2026-04-22 14:55 | 1.83991 | -60.23659 | 18700 ft | 362 kts | 326° |
| 2026-04-22 14:55 | 1.86069 | -60.25068 | 18336 ft | 360 kts | 326° |
| 2026-04-22 14:55 | 1.88137 | -60.26470 | 17917 ft | 358 kts | 326° |
| 2026-04-22 14:56 | 1.90196 | -60.27866 | 17529 ft | 356 kts | 325° |
| 2026-04-22 14:56 | 1.92235 | -60.29249 | 17156 ft | 353 kts | 325° |
| 2026-04-22 14:56 | 1.94258 | -60.30620 | 16790 ft | 350 kts | 325° |
| 2026-04-22 14:56 | 1.96248 | -60.31969 | 16440 ft | 347 kts | 325° |
| 2026-04-22 14:57 | 1.98240 | -60.33320 | 16080 ft | 345 kts | 325° |
| 2026-04-22 14:57 | 2.00219 | -60.34662 | 15740 ft | 343 kts | 325° |
| 2026-04-22 14:57 | 2.02186 | -60.35996 | 15378 ft | 341 kts | 325° |
| 2026-04-22 14:57 | 2.04146 | -60.37324 | 15028 ft | 339 kts | 324° |
| 2026-04-22 14:58 | 2.06090 | -60.38643 | 14684 ft | 337 kts | 325° |
| 2026-04-22 14:58 | 2.08034 | -60.39962 | 14320 ft | 336 kts | 324° |
| 2026-04-22 14:58 | 2.09963 | -60.41270 | 13978 ft | 334 kts | 324° |
| 2026-04-22 14:58 | 2.11883 | -60.42572 | 13599 ft | 333 kts | 324° |
| 2026-04-22 14:59 | 2.13800 | -60.43873 | 13230 ft | 331 kts | 324° |
| 2026-04-22 14:59 | 2.15679 | -60.45147 | 12876 ft | 329 kts | 324° |
| 2026-04-22 14:59 | 2.17566 | -60.46427 | 12524 ft | 327 kts | 324° |
| 2026-04-22 14:59 | 2.19441 | -60.47699 | 12186 ft | 324 kts | 324° |
| 2026-04-22 15:00 | 2.21300 | -60.48960 | 11870 ft | 322 kts | 325° |
| 2026-04-22 15:00 | 2.23154 | -60.50217 | 11506 ft | 322 kts | 324° |
| 2026-04-22 15:00 | 2.25004 | -60.51472 | 11176 ft | 320 kts | 325° |
| 2026-04-22 15:00 | 2.26840 | -60.52718 | 10839 ft | 318 kts | 325° |
| 2026-04-22 15:01 | 2.28671 | -60.53960 | 10508 ft | 317 kts | 325° |
| 2026-04-22 15:01 | 2.30486 | -60.55192 | 10256 ft | 312 kts | 325° |
| 2026-04-22 15:01 | 2.32264 | -60.56398 | 10107 ft | 304 kts | 325° |
| 2026-04-22 15:01 | 2.33977 | -60.57560 | 9942 ft | 298 kts | 325° |
| 2026-04-22 15:02 | 2.35664 | -60.58704 | 9700 ft | 294 kts | 325° |
| 2026-04-22 15:02 | 2.37365 | -60.59859 | 9340 ft | 294 kts | 325° |
| 2026-04-22 15:02 | 2.39058 | -60.61008 | 8998 ft | 294 kts | 325° |
| 2026-04-22 15:02 | 2.40744 | -60.62152 | 8697 ft | 292 kts | 325° |
| 2026-04-22 15:03 | 2.42421 | -60.63290 | 8395 ft | 291 kts | 325° |
| 2026-04-22 15:03 | 2.44092 | -60.64424 | 8099 ft | 289 kts | 325° |
| 2026-04-22 15:03 | 2.45751 | -60.65550 | 7808 ft | 288 kts | 326° |
| 2026-04-22 15:03 | 2.47402 | -60.66671 | 7510 ft | 286 kts | 326° |
| 2026-04-22 15:04 | 2.49045 | -60.67786 | 7229 ft | 285 kts | 326° |
| 2026-04-22 15:04 | 2.50685 | -60.68899 | 6950 ft | 284 kts | 326° |
| 2026-04-22 15:04 | 2.52318 | -60.70008 | 6661 ft | 285 kts | 326° |
| 2026-04-22 15:04 | 2.53966 | -60.71126 | 6344 ft | 286 kts | 327° |
| 2026-04-22 15:05 | 2.55518 | -60.72180 | 6068 ft | 285 kts | 327° |
| 2026-04-22 15:05 | 2.57154 | -60.73290 | 5769 ft | 283 kts | 327° |
| 2026-04-22 15:05 | 2.58770 | -60.74388 | 5473 ft | 275 kts | 327° |
| 2026-04-22 15:05 | 2.60330 | -60.75448 | 5198 ft | 267 kts | 327° |
| 2026-04-22 15:06 | 2.61844 | -60.76477 | 4923 ft | 261 kts | 327° |
| 2026-04-22 15:06 | 2.63325 | -60.77481 | 4677 ft | 259 kts | 327° |
| 2026-04-22 15:06 | 2.64809 | -60.78488 | 4415 ft | 257 kts | 327° |
| 2026-04-22 15:06 | 2.66289 | -60.79492 | 4147 ft | 256 kts | 327° |
| 2026-04-22 15:07 | 2.67749 | -60.80472 | 4030 ft | 249 kts | 330° |
| 2026-04-22 15:07 | 2.69248 | -60.81281 | 3896 ft | 241 kts | 335° |
| 2026-04-22 15:07 | 2.70706 | -60.82008 | 3783 ft | 228 kts | 335° |
| 2026-04-22 15:07 | 2.72071 | -60.82692 | 3708 ft | 211 kts | 335° |
| 2026-04-22 15:08 | 2.73359 | -60.83344 | 3615 ft | 206 kts | 335° |
| 2026-04-22 15:08 | 2.74633 | -60.83954 | 3460 ft | 201 kts | 345° |
| 2026-04-22 15:08 | 2.75950 | -60.83880 | 3252 ft | 186 kts | 31° |
| 2026-04-22 15:08 | 2.76830 | -60.83011 | 3091 ft | 175 kts | 49° |
| 2026-04-22 15:09 | 2.77646 | -60.82153 | 2851 ft | 165 kts | 53° |
| 2026-04-22 15:09 | 2.78271 | -60.81234 | 2699 ft | 157 kts | 57° |
| 2026-04-22 15:09 | 2.78841 | -60.80315 | 2474 ft | 154 kts | 61° |
| 2026-04-22 15:09 | 2.79346 | -60.79379 | 2282 ft | 152 kts | 63° |
| 2026-04-22 15:10 | 2.79834 | -60.78435 | 2080 ft | 152 kts | 63° |
| 2026-04-22 15:10 | 2.80315 | -60.77493 | 1876 ft | 151 kts | 63° |
| 2026-04-22 15:10 | 2.80791 | -60.76557 | 1708 ft | 152 kts | 63° |
| 2026-04-22 15:10 | 2.81265 | -60.75622 | 1493 ft | 152 kts | 63° |
| 2026-04-22 15:11 | 2.81749 | -60.74673 | 1293 ft | 151 kts | 63° |
| 2026-04-22 15:11 | 2.82225 | -60.73737 | 1108 ft | 152 kts | 63° |
| 2026-04-22 15:11 | 2.82701 | -60.72800 | 905 ft | 154 kts | 63° |
| 2026-04-22 15:11 | 2.83190 | -60.71838 | 696 ft | 156 kts | 63° |
| 2026-04-22 15:12 | 2.83683 | -60.70868 | 485 ft | 158 kts | 63° |
| 2026-04-22 15:12 | 2.84181 | -60.69889 | 292 ft | 156 kts | 63° |
| 2026-04-22 15:12 | 2.84614 | -60.69039 | 280 ft | 109 kts | 63° |
| 2026-04-22 15:12 | 2.84835 | -60.68605 | 284 ft | 41 kts | 63° |
| 2026-04-22 15:13 | 2.84876 | -60.68473 | 283 ft | 15 kts | 127° |
| 2026-04-22 15:13 | 2.84786 | -60.68425 | 283 ft | 14 kts | 167° |
| 2026-04-22 15:13 | 2.84723 | -60.68489 | 281 ft | 14 kts | 243° |
| 2026-04-22 15:13 | 2.84684 | -60.68574 | 282 ft | 13 kts | 245° |
| 2026-04-22 15:14 | 2.84643 | -60.68654 | 279 ft | 13 kts | 243° |
| 2026-04-22 15:14 | 2.84604 | -60.68732 | 279 ft | 12 kts | 243° |
| 2026-04-22 15:14 | 2.84565 | -60.68809 | 279 ft | 13 kts | 243° |
| 2026-04-22 15:14 | 2.84522 | -60.68891 | 280 ft | 14 kts | 243° |
| 2026-04-22 15:15 | 2.84476 | -60.68980 | 279 ft | 15 kts | 243° |
| 2026-04-22 15:15 | 2.84428 | -60.69076 | 279 ft | 16 kts | 243° |
| 2026-04-22 15:15 | 2.84380 | -60.69169 | 280 ft | 15 kts | 243° |
| 2026-04-22 15:15 | 2.84312 | -60.69233 | 279 ft | 14 kts | 180° |
| 2026-04-22 15:16 | 2.84235 | -60.69266 | 279 ft | 10 kts | 162° |
| 2026-04-22 15:16 | 2.84205 | -60.69249 | 279 ft | 1 kts | 151° |
| 2026-04-22 15:16 | 2.84200 | -60.69247 | 279 ft | 0 kts | 152° |